Time;durP1;ratioP1;P1;durP2;ratioP2;P2;SDS_P1;SDS_P2;PMS_P1;PMS_P2;Temp;Humidity;BMP_temperature;BMP_pressure;BME280_temperature;BME280_humidity;BME280_pressure;Samples;Min_cycle;Max_cycle;Signal;HPM_P1;HPM_P2
2023/07/19 00:01:05;;;;;;;5.10;3.60;;;;;;;;;;5142160;27;20440;-65
2023/07/19 00:03:32;;;;;;;6.43;3.97;;;;;;;;;;5142421;27;20530;-65
2023/07/19 00:06:02;;;;;;;3.43;3.13;;;;;;;;;;5140745;27;20446;-65
2023/07/19 00:08:29;;;;;;;4.90;3.30;;;;;;;;;;5140399;27;20451;-66
2023/07/19 00:10:56;;;;;;;4.13;3.57;;;;;;;;;;5140226;27;20810;-65
2023/07/19 00:13:25;;;;;;;5.30;2.97;;;;;;;;;;5140698;27;20458;-65
2023/07/19 00:15:52;;;;;;;5.87;3.50;;;;;;;;;;5140301;27;20447;-67
2023/07/19 00:18:19;;;;;;;6.40;3.87;;;;;;;;;;5140299;27;20467;-66
2023/07/19 00:20:46;;;;;;;6.83;3.70;;;;;;;;;;5140486;27;20446;-67
2023/07/19 00:23:13;;;;;;;4.60;3.80;;;;;;;;;;5140869;27;20433;-65
2023/07/19 00:25:40;;;;;;;5.60;3.20;;;;;;;;;;5138736;27;20446;-66
2023/07/19 00:28:08;;;;;;;3.70;3.30;;;;;;;;;;5137124;27;20452;-65
2023/07/19 00:30:36;;;;;;;9.73;4.70;;;;;;;;;;5136959;27;20440;-65
2023/07/19 00:33:03;;;;;;;5.67;3.80;;;;;;;;;;5137174;27;20779;-65
2023/07/19 00:35:32;;;;;;;5.83;3.37;;;;;;;;;;5137411;27;20444;-66
2023/07/19 00:37:59;;;;;;;7.60;2.97;;;;;;;;;;5136658;27;20977;-65
2023/07/19 00:40:26;;;;;;;5.70;3.23;;;;;;;;;;5136837;27;20440;-66
2023/07/19 00:42:57;;;;;;;3.60;3.07;;;;;;;;;;5136656;27;20443;-65
2023/07/19 00:45:25;;;;;;;6.00;4.43;;;;;;;;;;5136708;27;20456;-65
2023/07/19 00:47:54;;;;;;;6.90;3.13;;;;;;;;;;5136371;27;20447;-66
2023/07/19 00:50:21;;;;;;;5.87;3.73;;;;;;;;;;5136516;27;20450;-65
2023/07/19 00:52:49;;;;;;;4.40;3.60;;;;;;;;;;5136608;27;20435;-66
2023/07/19 00:55:16;;;;;;;4.90;3.67;;;;;;;;;;5136410;27;20443;-66
2023/07/19 00:57:43;;;;;;;3.30;3.00;;;;;;;;;;5136549;27;20474;-66
2023/07/19 01:00:11;;;;;;;4.13;3.00;;;;;;;;;;5136662;27;20467;-66
2023/07/19 01:02:38;;;;;;;6.73;3.63;;;;;;;;;;5136162;27;20478;-66
2023/07/19 01:05:07;;;;;;;7.03;3.90;;;;;;;;;;5136600;27;20442;-65
2023/07/19 01:07:34;;;;;;;4.50;3.67;;;;;;;;;;5136081;27;20952;-66
2023/07/19 01:10:01;;;;;;;5.33;3.50;;;;;;;;;;5136160;27;20447;-66
2023/07/19 01:12:29;;;;;;;9.13;3.30;;;;;;;;;;5136059;27;20441;-66
2023/07/19 01:14:56;;;;;;;5.70;3.73;;;;;;;;;;5136458;27;20446;-65
2023/07/19 01:17:23;;;;;;;6.20;3.10;;;;;;;;;;5136522;27;20467;-66
2023/07/19 01:19:51;;;;;;;5.93;3.97;;;;;;;;;;5136739;27;20851;-66
2023/07/19 01:22:19;;;;;;;4.40;4.00;;;;;;;;;;5136498;27;20433;-66
2023/07/19 01:24:48;;;;;;;3.97;3.17;;;;;;;;;;5135956;27;20438;-65
2023/07/19 01:27:15;;;;;;;4.80;3.53;;;;;;;;;;5136099;27;20466;-66
2023/07/19 01:29:42;;;;;;;9.83;3.50;;;;;;;;;;5136509;27;20453;-66
2023/07/19 01:32:10;;;;;;;9.43;4.13;;;;;;;;;;5136330;27;20531;-66
2023/07/19 01:34:37;;;;;;;7.03;4.07;;;;;;;;;;5136035;27;20442;-66
2023/07/19 01:37:04;;;;;;;3.57;3.23;;;;;;;;;;5135660;27;20481;-66
2023/07/19 01:39:31;;;;;;;6.13;3.40;;;;;;;;;;5135952;27;20446;-66
2023/07/19 01:42:00;;;;;;;3.40;3.10;;;;;;;;;;5135993;27;20447;-66
2023/07/19 01:44:27;;;;;;;4.10;3.70;;;;;;;;;;5135823;27;20439;-66
2023/07/19 01:46:55;;;;;;;4.70;4.07;;;;;;;;;;5136042;27;20511;-65
2023/07/19 01:49:22;;;;;;;4.77;3.30;;;;;;;;;;5135828;27;20521;-65
2023/07/19 01:51:49;;;;;;;5.00;3.77;;;;;;;;;;5135365;27;20920;-65
2023/07/19 01:54:16;;;;;;;5.33;3.20;;;;;;;;;;5135609;27;20462;-65
2023/07/19 01:56:43;;;;;;;7.40;3.90;;;;;;;;;;5135741;27;20444;-65
2023/07/19 01:59:12;;;;;;;4.20;3.80;;;;;;;;;;5135250;27;20829;-65
2023/07/19 02:01:39;;;;;;;5.00;3.70;;;;;;;;;;5135378;27;20928;-65
2023/07/19 02:04:06;;;;;;;5.37;4.10;;;;;;;;;;5135360;27;20475;-65
2023/07/19 02:06:34;;;;;;;4.40;3.40;;;;;;;;;;5135585;27;20434;-65
2023/07/19 02:09:01;;;;;;;5.77;3.93;;;;;;;;;;5134924;27;20451;-65
2023/07/19 02:11:28;;;;;;;5.97;3.30;;;;;;;;;;5135550;27;20854;-65
2023/07/19 02:13:55;;;;;;;7.20;4.47;;;;;;;;;;5135238;27;20440;-66
2023/07/19 02:16:24;;;;;;;6.53;4.23;;;;;;;;;;5135246;27;20442;-66
2023/07/19 02:18:51;;;;;;;4.37;3.73;;;;;;;;;;5134998;27;20477;-65
2023/07/19 02:21:18;;;;;;;4.30;3.60;;;;;;;;;;5135113;27;20442;-65
2023/07/19 02:23:45;;;;;;;3.53;3.23;;;;;;;;;;5134644;27;20448;-65
2023/07/19 02:26:13;;;;;;;4.60;3.57;;;;;;;;;;5134739;27;20455;-66
2023/07/19 02:28:40;;;;;;;4.77;3.27;;;;;;;;;;5134700;27;20456;-66
2023/07/19 02:31:07;;;;;;;6.97;4.43;;;;;;;;;;5134612;27;20473;-65
2023/07/19 02:33:36;;;;;;;7.70;3.87;;;;;;;;;;5134885;27;20883;-65
2023/07/19 02:36:04;;;;;;;6.10;3.97;;;;;;;;;;5134514;27;20482;-65
2023/07/19 02:38:31;;;;;;;5.00;3.60;;;;;;;;;;5134348;27;20473;-65
2023/07/19 02:40:59;;;;;;;6.23;4.40;;;;;;;;;;5134945;27;20451;-66
2023/07/19 02:43:26;;;;;;;5.43;3.87;;;;;;;;;;5134681;27;20442;-66
2023/07/19 02:45:54;;;;;;;7.33;4.20;;;;;;;;;;5134559;27;20446;-66
2023/07/19 02:48:21;;;;;;;5.13;3.60;;;;;;;;;;5134449;27;20448;-66
2023/07/19 02:50:50;;;;;;;4.33;3.40;;;;;;;;;;5134058;27;20441;-65
2023/07/19 02:53:17;;;;;;;7.70;4.37;;;;;;;;;;5134479;27;20449;-66
2023/07/19 02:55:45;;;;;;;4.80;3.77;;;;;;;;;;5134262;27;20436;-65
2023/07/19 02:58:12;;;;;;;5.00;4.10;;;;;;;;;;5134321;27;20488;-66
2023/07/19 03:00:40;;;;;;;5.90;4.17;;;;;;;;;;5134693;27;20471;-65
2023/07/19 03:03:08;;;;;;;7.53;4.50;;;;;;;;;;5134352;27;20440;-66
2023/07/19 03:05:39;;;;;;;5.87;4.33;;;;;;;;;;5134453;27;20446;-66
2023/07/19 03:08:07;;;;;;;7.23;5.33;;;;;;;;;;5134365;27;20435;-65
2023/07/19 03:10:34;;;;;;;10.43;4.13;;;;;;;;;;5134710;27;20544;-65
2023/07/19 03:13:01;;;;;;;7.60;4.53;;;;;;;;;;5134232;28;20435;-66
2023/07/19 03:15:32;;;;;;;6.40;4.93;;;;;;;;;;5134750;28;20463;-65
2023/07/19 03:17:59;;;;;;;8.87;4.60;;;;;;;;;;5134258;27;20475;-65
2023/07/19 03:20:27;;;;;;;7.50;5.23;;;;;;;;;;5134230;28;20439;-65
2023/07/19 03:22:55;;;;;;;6.07;4.63;;;;;;;;;;5133951;28;20443;-65
2023/07/19 03:25:23;;;;;;;6.20;4.70;;;;;;;;;;5134130;28;20534;-65
2023/07/19 03:27:50;;;;;;;6.80;4.10;;;;;;;;;;5134137;28;20517;-65
2023/07/19 03:30:18;;;;;;;6.93;5.27;;;;;;;;;;5134174;28;20441;-66
2023/07/19 03:32:45;;;;;;;7.67;5.63;;;;;;;;;;5133809;28;20447;-66
2023/07/19 03:35:12;;;;;;;8.20;5.63;;;;;;;;;;5133733;28;20437;-65
2023/07/19 03:37:44;;;;;;;6.20;5.40;;;;;;;;;;5134062;28;20476;-65
2023/07/19 03:40:11;;;;;;;8.47;5.20;;;;;;;;;;5134263;27;20438;-65
2023/07/19 03:42:40;;;;;;;9.10;6.50;;;;;;;;;;5134474;28;20457;-65
2023/07/19 03:45:08;;;;;;;7.50;5.43;;;;;;;;;;5133633;28;20545;-65
2023/07/19 03:47:35;;;;;;;5.93;5.33;;;;;;;;;;5134125;28;20442;-65
2023/07/19 03:50:03;;;;;;;8.30;5.53;;;;;;;;;;5133627;28;20928;-65
2023/07/19 03:52:30;;;;;;;6.43;5.47;;;;;;;;;;5133955;28;20804;-65
2023/07/19 03:54:57;;;;;;;8.60;6.73;;;;;;;;;;5133103;28;20475;-65
2023/07/19 03:57:24;;;;;;;6.23;5.63;;;;;;;;;;5133949;28;20513;-65
2023/07/19 03:59:54;;;;;;;8.40;6.07;;;;;;;;;;5132965;27;20475;-66
2023/07/19 04:02:22;;;;;;;7.90;5.60;;;;;;;;;;5136283;27;20461;-65
2023/07/19 04:04:49;;;;;;;7.83;4.87;;;;;;;;;;5137635;27;20527;-65
2023/07/19 04:07:17;;;;;;;6.27;4.90;;;;;;;;;;5137594;27;20839;-65
2023/07/19 04:09:44;;;;;;;10.13;6.27;;;;;;;;;;5137463;27;20442;-65
2023/07/19 04:12:11;;;;;;;9.50;5.10;;;;;;;;;;5137562;27;20440;-65
2023/07/19 04:14:38;;;;;;;5.77;5.27;;;;;;;;;;5137586;27;20547;-65
2023/07/19 04:17:07;;;;;;;7.00;4.90;;;;;;;;;;5137489;27;20438;-65
2023/07/19 04:19:35;;;;;;;6.67;4.60;;;;;;;;;;5137237;27;20518;-65
2023/07/19 04:22:02;;;;;;;7.37;4.70;;;;;;;;;;5137174;27;20469;-65
2023/07/19 04:24:30;;;;;;;6.83;4.57;;;;;;;;;;5137461;27;20444;-65
2023/07/19 04:26:57;;;;;;;6.57;4.20;;;;;;;;;;5137230;27;20509;-65
2023/07/19 04:29:24;;;;;;;7.77;5.03;;;;;;;;;;5136740;27;20450;-64
2023/07/19 04:31:51;;;;;;;8.90;5.10;;;;;;;;;;5136792;27;20439;-64
2023/07/19 04:34:20;;;;;;;4.47;4.07;;;;;;;;;;5136678;27;20923;-62
2023/07/19 04:36:48;;;;;;;8.70;4.90;;;;;;;;;;5136763;27;20481;-64
2023/07/19 04:39:15;;;;;;;8.70;5.20;;;;;;;;;;5136810;27;20474;-64
2023/07/19 04:41:42;;;;;;;6.13;4.40;;;;;;;;;;5136947;27;20440;-65
2023/07/19 04:44:09;;;;;;;5.53;4.00;;;;;;;;;;5136906;27;20446;-65
2023/07/19 04:46:37;;;;;;;6.47;4.30;;;;;;;;;;5137131;27;20460;-64
2023/07/19 04:49:04;;;;;;;7.73;4.50;;;;;;;;;;5136829;27;20442;-64
2023/07/19 04:51:32;;;;;;;6.97;5.57;;;;;;;;;;5136747;27;20532;-64
2023/07/19 04:54:00;;;;;;;5.23;4.70;;;;;;;;;;5136155;27;20526;-64
2023/07/19 04:56:27;;;;;;;5.57;5.07;;;;;;;;;;5136282;27;20444;-64
2023/07/19 04:58:54;;;;;;;4.67;4.27;;;;;;;;;;5136281;27;20496;-64
2023/07/19 05:01:22;;;;;;;7.60;5.13;;;;;;;;;;5136700;27;20442;-63
2023/07/19 05:03:50;;;;;;;6.90;4.33;;;;;;;;;;5136076;27;20439;-65
2023/07/19 05:06:17;;;;;;;6.90;4.90;;;;;;;;;;5136411;27;20526;-64
2023/07/19 05:08:45;;;;;;;6.90;4.37;;;;;;;;;;5136074;27;20473;-64
2023/07/19 05:11:13;;;;;;;7.53;4.40;;;;;;;;;;5136251;27;20441;-65
2023/07/19 05:13:40;;;;;;;4.57;4.17;;;;;;;;;;5135930;27;20530;-64
2023/07/19 05:16:07;;;;;;;8.20;5.20;;;;;;;;;;5136133;27;20447;-64
2023/07/19 05:18:35;;;;;;;5.17;4.50;;;;;;;;;;5136572;27;20480;-65
2023/07/19 05:21:02;;;;;;;5.70;4.73;;;;;;;;;;5136470;27;20447;-64
2023/07/19 05:23:29;;;;;;;8.53;4.37;;;;;;;;;;5136215;27;20450;-64
2023/07/19 05:25:58;;;;;;;4.03;3.67;;;;;;;;;;5135505;27;20442;-65
2023/07/19 05:28:25;;;;;;;6.43;5.53;;;;;;;;;;5135740;27;20509;-64
2023/07/19 05:30:52;;;;;;;6.10;4.70;;;;;;;;;;5136218;27;20479;-64
2023/07/19 05:33:19;;;;;;;10.70;6.17;;;;;;;;;;5135861;27;20444;-64
2023/07/19 05:35:48;;;;;;;7.27;4.73;;;;;;;;;;5135705;27;20441;-64
2023/07/19 05:38:16;;;;;;;8.57;4.10;;;;;;;;;;5135510;27;20921;-65
2023/07/19 05:40:43;;;;;;;7.67;4.73;;;;;;;;;;5135921;27;20436;-64
2023/07/19 05:43:11;;;;;;;10.67;5.10;;;;;;;;;;5135784;27;20517;-66
2023/07/19 05:45:38;;;;;;;6.87;5.63;;;;;;;;;;5135719;27;20535;-64
2023/07/19 05:48:06;;;;;;;6.20;4.77;;;;;;;;;;5135803;27;20482;-64
2023/07/19 05:50:33;;;;;;;7.07;4.77;;;;;;;;;;5135307;27;20444;-64
2023/07/19 05:53:00;;;;;;;5.67;4.90;;;;;;;;;;5135327;27;20442;-64
2023/07/19 05:55:27;;;;;;;7.07;5.10;;;;;;;;;;5135226;27;20932;-64
2023/07/19 05:57:54;;;;;;;7.33;4.40;;;;;;;;;;5135112;27;20961;-64
2023/07/19 06:00:24;;;;;;;10.00;6.30;;;;;;;;;;5135634;27;20489;-65
2023/07/19 06:02:52;;;;;;;10.93;5.77;;;;;;;;;;5135702;27;20448;-63
2023/07/19 06:05:19;;;;;;;6.53;4.80;;;;;;;;;;5135496;27;20447;-64
2023/07/19 06:07:48;;;;;;;7.17;6.40;;;;;;;;;;5135385;27;20525;-65
2023/07/19 06:10:15;;;;;;;6.20;4.77;;;;;;;;;;5135046;27;20935;-64
2023/07/19 06:12:44;;;;;;;5.80;5.20;;;;;;;;;;5134927;27;20444;-63
2023/07/19 06:15:11;;;;;;;10.30;6.47;;;;;;;;;;5135178;27;20946;-65
2023/07/19 06:17:40;;;;;;;10.00;7.20;;;;;;;;;;5135186;27;20442;-65
2023/07/19 06:20:10;;;;;;;8.40;5.47;;;;;;;;;;5134804;27;20468;-65
2023/07/19 06:22:38;;;;;;;5.93;5.33;;;;;;;;;;5135236;27;21016;-64
2023/07/19 06:25:05;;;;;;;5.70;5.10;;;;;;;;;;5134015;27;20436;-64
2023/07/19 06:27:32;;;;;;;5.63;4.90;;;;;;;;;;5135058;27;20442;-65
2023/07/19 06:29:59;;;;;;;8.83;5.50;;;;;;;;;;5135445;27;20461;-66
2023/07/19 06:32:27;;;;;;;8.30;5.93;;;;;;;;;;5135211;27;20945;-64
2023/07/19 06:34:55;;;;;;;10.20;5.17;;;;;;;;;;5135030;27;20518;-64
2023/07/19 06:37:22;;;;;;;7.33;5.30;;;;;;;;;;5134442;27;20460;-64
2023/07/19 06:39:50;;;;;;;6.77;5.60;;;;;;;;;;5134945;27;20477;-65
2023/07/19 06:42:17;;;;;;;6.13;5.33;;;;;;;;;;5134491;27;20447;-65
2023/07/19 06:44:44;;;;;;;4.83;4.30;;;;;;;;;;5134509;27;21026;-66
2023/07/19 06:47:11;;;;;;;9.83;4.87;;;;;;;;;;5134377;27;20448;-65
2023/07/19 06:49:38;;;;;;;10.17;4.67;;;;;;;;;;5134693;27;20529;-63
2023/07/19 06:52:07;;;;;;;10.27;4.93;;;;;;;;;;5134803;27;20518;-64
2023/07/19 06:54:35;;;;;;;9.53;5.00;;;;;;;;;;5134584;27;20840;-64
2023/07/19 06:57:02;;;;;;;7.40;4.43;;;;;;;;;;5134108;27;20451;-64
2023/07/19 06:59:29;;;;;;;5.23;4.73;;;;;;;;;;5134589;27;20487;-63
2023/07/19 07:01:56;;;;;;;6.33;4.77;;;;;;;;;;5134363;27;20794;-64
2023/07/19 07:04:24;;;;;;;10.33;4.47;;;;;;;;;;5134448;27;20440;-64
2023/07/19 07:06:51;;;;;;;9.80;5.00;;;;;;;;;;5134614;27;20445;-64
2023/07/19 07:09:20;;;;;;;6.93;3.90;;;;;;;;;;5134096;27;20440;-65
2023/07/19 07:11:47;;;;;;;3.67;3.37;;;;;;;;;;5133864;27;20451;-64
2023/07/19 07:14:14;;;;;;;7.00;3.70;;;;;;;;;;5134287;28;20784;-63
2023/07/19 07:16:41;;;;;;;6.37;3.60;;;;;;;;;;5133922;28;20438;-65
2023/07/19 07:19:09;;;;;;;4.50;3.63;;;;;;;;;;5133849;28;20973;-65
2023/07/19 07:21:36;;;;;;;5.80;2.90;;;;;;;;;;5134210;28;20468;-65
2023/07/19 07:24:03;;;;;;;3.80;2.73;;;;;;;;;;5134196;28;20519;-65
2023/07/19 07:26:33;;;;;;;10.00;3.40;;;;;;;;;;5134152;28;20512;-66
2023/07/19 07:29:00;;;;;;;5.77;3.60;;;;;;;;;;5134469;28;20445;-64
2023/07/19 07:31:27;;;;;;;4.57;3.20;;;;;;;;;;5133888;28;20456;-64
2023/07/19 07:33:54;;;;;;;5.47;3.00;;;;;;;;;;5134102;28;20441;-64
2023/07/19 07:36:22;;;;;;;4.60;3.30;;;;;;;;;;5137201;27;20777;-64
2023/07/19 07:38:49;;;;;;;8.13;3.20;;;;;;;;;;5138210;27;20448;-64
2023/07/19 07:41:16;;;;;;;4.00;3.20;;;;;;;;;;5138304;27;20532;-65
2023/07/19 07:43:45;;;;;;;8.47;3.10;;;;;;;;;;5137964;27;20811;-64
2023/07/19 07:46:12;;;;;;;6.43;3.10;;;;;;;;;;5138112;27;20452;-65
2023/07/19 07:48:39;;;;;;;5.40;2.87;;;;;;;;;;5137801;27;20442;-64
2023/07/19 07:51:07;;;;;;;3.83;2.50;;;;;;;;;;5137793;27;20452;-65
2023/07/19 07:53:34;;;;;;;3.77;2.50;;;;;;;;;;5138111;27;20469;-64
2023/07/19 07:56:02;;;;;;;10.53;3.30;;;;;;;;;;5138018;27;20447;-65
2023/07/19 07:58:29;;;;;;;4.43;2.57;;;;;;;;;;5137670;27;20954;-65
2023/07/19 08:00:58;;;;;;;7.80;2.50;;;;;;;;;;5138195;27;21023;-64
2023/07/19 08:03:26;;;;;;;7.93;3.13;;;;;;;;;;5137765;27;20524;-65
2023/07/19 08:05:54;;;;;;;5.67;3.13;;;;;;;;;;5138036;27;20438;-64
2023/07/19 08:08:21;;;;;;;6.43;2.90;;;;;;;;;;5137392;27;20453;-65
2023/07/19 08:10:48;;;;;;;3.83;2.47;;;;;;;;;;5137277;27;20441;-65
2023/07/19 08:13:16;;;;;;;4.93;2.90;;;;;;;;;;5137594;27;20548;-65
2023/07/19 08:15:43;;;;;;;8.87;2.70;;;;;;;;;;5137335;27;20498;-65
2023/07/19 08:18:12;;;;;;;7.43;3.30;;;;;;;;;;5137169;27;20446;-64
2023/07/19 08:20:39;;;;;;;4.70;2.63;;;;;;;;;;5137494;27;20473;-64
2023/07/19 08:23:06;;;;;;;5.33;2.63;;;;;;;;;;5137131;27;20445;-65
2023/07/19 08:25:34;;;;;;;7.70;3.37;;;;;;;;;;5137129;27;20941;-63
2023/07/19 08:28:01;;;;;;;6.17;2.73;;;;;;;;;;5137206;27;20441;-64
2023/07/19 08:30:28;;;;;;;4.53;2.60;;;;;;;;;;5136293;27;20442;-64
2023/07/19 08:32:56;;;;;;;5.27;2.67;;;;;;;;;;5137023;27;20445;-63
2023/07/19 08:35:24;;;;;;;7.13;3.40;;;;;;;;;;5137008;27;20442;-65
2023/07/19 08:37:51;;;;;;;3.60;2.97;;;;;;;;;;5136823;27;20434;-65
2023/07/19 08:40:19;;;;;;;2.83;2.50;;;;;;;;;;5137239;27;20473;-64
2023/07/19 08:42:46;;;;;;;3.93;2.50;;;;;;;;;;5137347;27;20438;-64
2023/07/19 08:45:14;;;;;;;5.73;2.73;;;;;;;;;;5137005;27;20438;-63
2023/07/19 08:47:41;;;;;;;6.63;3.23;;;;;;;;;;5135491;27;20469;-64
2023/07/19 08:50:11;;;;;;;3.50;2.50;;;;;;;;;;5136816;27;20464;-64
2023/07/19 08:52:40;;;;;;;5.80;2.83;;;;;;;;;;5137052;27;20444;-65
2023/07/19 08:55:08;;;;;;;6.20;2.33;;;;;;;;;;5136686;27;20949;-64
2023/07/19 08:57:41;;;;;;;5.13;2.60;;;;;;;;;;5136248;27;20442;-64
2023/07/19 09:00:09;;;;;;;7.50;2.73;;;;;;;;;;5135955;27;20530;-64
2023/07/19 09:02:36;;;;;;;5.20;2.40;;;;;;;;;;5136594;27;20429;-64
2023/07/19 09:05:07;;;;;;;7.03;3.50;;;;;;;;;;5136452;27;20469;-63
2023/07/19 09:07:34;;;;;;;4.30;2.50;;;;;;;;;;5135827;27;20932;-65
2023/07/19 09:10:02;;;;;;;6.70;2.77;;;;;;;;;;5136154;27;20512;-65
2023/07/19 09:12:36;;;;;;;4.30;2.30;;;;;;;;;;5135810;27;20437;-64
2023/07/19 09:15:03;;;;;;;5.23;2.90;;;;;;;;;;5136117;27;20435;-63
2023/07/19 09:17:30;;;;;;;4.77;2.57;;;;;;;;;;5135942;27;20438;-64
2023/07/19 09:19:58;;;;;;;5.80;2.47;;;;;;;;;;5135912;27;20472;-64
2023/07/19 09:22:28;;;;;;;10.63;2.90;;;;;;;;;;5135907;27;20439;-64
2023/07/19 09:24:57;;;;;;;10.00;3.13;;;;;;;;;;5135988;27;20524;-64
2023/07/19 09:27:29;;;;;;;2.67;2.00;;;;;;;;;;5135956;27;20803;-64
2023/07/19 09:29:56;;;;;;;5.13;2.57;;;;;;;;;;5136084;27;20802;-63
2023/07/19 09:32:24;;;;;;;3.73;2.13;;;;;;;;;;5136286;27;20437;-64
2023/07/19 09:34:54;;;;;;;2.90;2.13;;;;;;;;;;5135361;27;20469;-65
2023/07/19 09:37:21;;;;;;;5.57;2.60;;;;;;;;;;5135764;27;20441;-64
2023/07/19 09:39:48;;;;;;;10.33;4.23;;;;;;;;;;5135182;27;20574;-64
2023/07/19 09:42:15;;;;;;;2.50;2.17;;;;;;;;;;5136018;27;20441;-64
2023/07/19 09:44:44;;;;;;;2.93;2.53;;;;;;;;;;5135268;27;20641;-64
2023/07/19 09:47:12;;;;;;;14.17;2.73;;;;;;;;;;5135864;27;20529;-64
2023/07/19 09:49:39;;;;;;;5.03;2.70;;;;;;;;;;5135544;27;20436;-64
2023/07/19 09:52:07;;;;;;;4.90;2.37;;;;;;;;;;5135116;27;20450;-63
2023/07/19 09:54:34;;;;;;;2.87;2.40;;;;;;;;;;5135255;27;20440;-64
2023/07/19 09:57:03;;;;;;;6.20;2.63;;;;;;;;;;5135048;27;20911;-64
2023/07/19 09:59:32;;;;;;;2.90;2.43;;;;;;;;;;5134501;27;20479;-64
2023/07/19 10:02:01;;;;;;;8.90;3.40;;;;;;;;;;5135763;27;20537;-63
2023/07/19 10:04:29;;;;;;;4.07;2.57;;;;;;;;;;5134786;27;20528;-64
2023/07/19 10:07:07;;;;;;;4.03;2.47;;;;;;;;;;5134857;27;20443;-64
2023/07/19 10:09:37;;;;;;;6.23;2.30;;;;;;;;;;5134930;27;20447;-64
2023/07/19 10:12:07;;;;;;;2.93;2.40;;;;;;;;;;5135255;27;20444;-64
2023/07/19 10:14:34;;;;;;;6.17;2.97;;;;;;;;;;5134970;27;20431;-64
2023/07/19 10:17:04;;;;;;;2.93;2.67;;;;;;;;;;5135045;27;20438;-64
2023/07/19 10:19:31;;;;;;;5.50;3.37;;;;;;;;;;5134752;27;20451;-63
2023/07/19 10:22:03;;;;;;;4.60;2.90;;;;;;;;;;5134788;27;20576;-64
2023/07/19 10:24:30;;;;;;;4.80;2.83;;;;;;;;;;5134696;27;20441;-63
2023/07/19 10:27:00;;;;;;;6.73;2.80;;;;;;;;;;5134717;27;20440;-64
2023/07/19 10:29:28;;;;;;;4.80;3.13;;;;;;;;;;5134260;27;20452;-64
2023/07/19 10:31:55;;;;;;;5.67;3.00;;;;;;;;;;5134338;27;20451;-64
2023/07/19 10:34:32;;;;;;;4.57;2.50;;;;;;;;;;5135142;27;20803;-64
2023/07/19 10:37:03;;;;;;;3.53;2.80;;;;;;;;;;5134410;27;20463;-64
2023/07/19 10:39:30;;;;;;;16.73;2.80;;;;;;;;;;5134603;27;20509;-64
2023/07/19 10:41:57;;;;;;;3.53;2.87;;;;;;;;;;5134610;27;20887;-64
2023/07/19 10:44:26;;;;;;;3.17;2.80;;;;;;;;;;5134443;27;20530;-64
2023/07/19 10:46:54;;;;;;;6.27;3.40;;;;;;;;;;5134459;27;20499;-64
2023/07/19 10:49:22;;;;;;;5.30;2.83;;;;;;;;;;5133991;27;20453;-64
2023/07/19 10:51:54;;;;;;;3.00;2.70;;;;;;;;;;5134370;27;20448;-64
2023/07/19 10:54:22;;;;;;;7.80;2.90;;;;;;;;;;5133902;27;20442;-64
2023/07/19 10:56:50;;;;;;;4.30;2.67;;;;;;;;;;5134662;27;20451;-64
2023/07/19 10:59:17;;;;;;;6.43;2.77;;;;;;;;;;5134231;27;20508;-63
2023/07/19 11:01:45;;;;;;;3.10;2.20;;;;;;;;;;5134726;27;20472;-64
2023/07/19 11:04:12;;;;;;;5.23;2.63;;;;;;;;;;5133837;27;20440;-64
2023/07/19 11:06:40;;;;;;;3.33;2.23;;;;;;;;;;5133764;27;20450;-64
2023/07/19 11:09:09;;;;;;;5.50;3.20;;;;;;;;;;5133461;27;20510;-63
2023/07/19 11:11:37;;;;;;;9.70;2.90;;;;;;;;;;5133378;27;20965;-64
2023/07/19 11:14:04;;;;;;;3.87;2.70;;;;;;;;;;5133869;27;20439;-64
2023/07/19 11:16:32;;;;;;;4.83;2.60;;;;;;;;;;5132798;28;20531;-66
2023/07/19 11:18:59;;;;;;;3.63;2.87;;;;;;;;;;5134014;28;20438;-65
2023/07/19 11:21:27;;;;;;;4.43;3.13;;;;;;;;;;5133721;28;20475;-65
2023/07/19 11:23:55;;;;;;;6.50;2.57;;;;;;;;;;5134009;28;20433;-65
2023/07/19 11:26:23;;;;;;;7.27;3.17;;;;;;;;;;5133952;28;20795;-65
2023/07/19 11:28:51;;;;;;;3.90;2.80;;;;;;;;;;5133914;28;20448;-65
2023/07/19 11:31:28;;;;;;;6.23;2.80;;;;;;;;;;5133856;28;20801;-64
2023/07/19 11:33:58;;;;;;;4.17;2.70;;;;;;;;;;5133776;28;20452;-64
2023/07/19 11:36:25;;;;;;;3.93;2.77;;;;;;;;;;5134163;28;20472;-65
2023/07/19 11:38:53;;;;;;;3.23;2.77;;;;;;;;;;5131028;28;20529;-65
2023/07/19 11:41:20;;;;;;;3.40;2.33;;;;;;;;;;5133748;28;20487;-65
2023/07/19 11:43:50;;;;;;;3.37;1.90;;;;;;;;;;5133861;28;20437;-65
2023/07/19 11:46:17;;;;;;;3.27;2.90;;;;;;;;;;5133939;28;20433;-65
2023/07/19 11:48:46;;;;;;;6.23;2.83;;;;;;;;;;5133520;28;20450;-65
2023/07/19 11:51:13;;;;;;;5.30;2.80;;;;;;;;;;5133722;28;20441;-65
2023/07/19 11:53:40;;;;;;;5.17;2.50;;;;;;;;;;5133851;28;20493;-65
2023/07/19 11:56:08;;;;;;;2.97;2.67;;;;;;;;;;5133306;28;20443;-65
2023/07/19 11:58:35;;;;;;;3.63;3.00;;;;;;;;;;5133512;28;20449;-65
2023/07/19 12:01:05;;;;;;;4.93;2.70;;;;;;;;;;5133364;28;20497;-65
2023/07/19 12:03:32;;;;;;;3.90;2.57;;;;;;;;;;5133609;28;20440;-65
2023/07/19 12:05:59;;;;;;;6.17;2.50;;;;;;;;;;5133819;28;20440;-65
2023/07/19 12:08:26;;;;;;;3.70;2.50;;;;;;;;;;5133540;28;20451;-65
2023/07/19 12:10:54;;;;;;;4.10;2.60;;;;;;;;;;5133110;28;20559;-64
2023/07/19 12:13:22;;;;;;;5.13;3.23;;;;;;;;;;5133085;28;20446;-65
2023/07/19 12:15:49;;;;;;;5.60;2.90;;;;;;;;;;5133179;28;20969;-65
2023/07/19 12:18:18;;;;;;;3.27;2.13;;;;;;;;;;5133521;28;20445;-65
2023/07/19 12:20:45;;;;;;;3.33;2.40;;;;;;;;;;5133023;27;20497;-64
2023/07/19 12:23:12;;;;;;;4.03;2.50;;;;;;;;;;5135850;27;20440;-64
2023/07/19 12:25:40;;;;;;;3.90;3.10;;;;;;;;;;5137407;27;20933;-64
2023/07/19 12:28:08;;;;;;;3.97;2.50;;;;;;;;;;5137028;27;20453;-64
2023/07/19 12:30:35;;;;;;;4.93;2.93;;;;;;;;;;5136925;27;20441;-66
2023/07/19 12:33:02;;;;;;;3.30;2.83;;;;;;;;;;5136723;27;20443;-65
2023/07/19 12:35:31;;;;;;;5.00;2.83;;;;;;;;;;5136834;27;20444;-66
2023/07/19 12:37:58;;;;;;;7.37;2.60;;;;;;;;;;5136849;27;20532;-65
2023/07/19 12:40:25;;;;;;;2.90;2.70;;;;;;;;;;5136487;27;20445;-65
2023/07/19 12:42:52;;;;;;;4.03;2.43;;;;;;;;;;5136818;27;20442;-64
2023/07/19 12:45:20;;;;;;;2.70;2.50;;;;;;;;;;5136742;27;20485;-65
2023/07/19 12:47:49;;;;;;;3.20;2.90;;;;;;;;;;5136403;27;20449;-65
2023/07/19 12:50:16;;;;;;;4.27;3.13;;;;;;;;;;5136314;27;20449;-64
2023/07/19 12:52:46;;;;;;;4.03;2.93;;;;;;;;;;5136251;27;20942;-65
2023/07/19 12:55:13;;;;;;;4.37;2.40;;;;;;;;;;5136573;27;20440;-66
2023/07/19 12:57:42;;;;;;;6.17;3.67;;;;;;;;;;5136043;27;20441;-65
2023/07/19 13:00:12;;;;;;;3.47;2.90;;;;;;;;;;5136288;27;20981;-65
2023/07/19 13:02:39;;;;;;;6.97;3.00;;;;;;;;;;5135995;27;21061;-64
2023/07/19 13:05:06;;;;;;;5.80;3.13;;;;;;;;;;5136495;27;20480;-65
2023/07/19 13:07:34;;;;;;;6.80;3.67;;;;;;;;;;5136063;27;20455;-65
2023/07/19 13:10:02;;;;;;;6.17;3.03;;;;;;;;;;5136140;27;20444;-65
2023/07/19 13:12:30;;;;;;;3.90;3.37;;;;;;;;;;5135918;27;20853;-64
2023/07/19 13:14:57;;;;;;;3.80;2.57;;;;;;;;;;5136620;27;20441;-65
2023/07/19 13:17:25;;;;;;;4.73;3.17;;;;;;;;;;5136011;27;20443;-65
2023/07/19 13:19:52;;;;;;;5.10;3.00;;;;;;;;;;5136225;27;20441;-64
2023/07/19 13:22:19;;;;;;;5.20;2.73;;;;;;;;;;5135627;27;20566;-65
2023/07/19 13:24:46;;;;;;;8.00;3.10;;;;;;;;;;5135788;27;20445;-64
2023/07/19 13:27:15;;;;;;;3.23;2.83;;;;;;;;;;5135968;27;20516;-66
2023/07/19 13:29:42;;;;;;;3.20;2.73;;;;;;;;;;5136145;27;21134;-64
2023/07/19 13:32:09;;;;;;;5.93;2.60;;;;;;;;;;5135803;27;20470;-65
2023/07/19 13:34:36;;;;;;;3.93;3.13;;;;;;;;;;5135581;27;20837;-64
2023/07/19 13:37:05;;;;;;;6.73;3.30;;;;;;;;;;5135344;27;20444;-64
2023/07/19 13:39:33;;;;;;;6.53;3.33;;;;;;;;;;5135588;27;20464;-65
2023/07/19 13:42:00;;;;;;;4.90;3.47;;;;;;;;;;5135571;27;20473;-66
2023/07/19 13:44:29;;;;;;;4.63;3.00;;;;;;;;;;5135287;27;20446;-65
2023/07/19 13:46:56;;;;;;;5.27;2.70;;;;;;;;;;5135168;27;20443;-65
2023/07/19 13:49:24;;;;;;;6.97;2.77;;;;;;;;;;5135428;27;20445;-65
2023/07/19 13:51:51;;;;;;;4.30;2.80;;;;;;;;;;5135282;27;20457;-64
2023/07/19 13:54:18;;;;;;;4.90;3.10;;;;;;;;;;5135479;27;20441;-64
2023/07/19 13:56:46;;;;;;;4.70;3.07;;;;;;;;;;5135111;27;20452;-64
2023/07/19 13:59:13;;;;;;;3.87;3.00;;;;;;;;;;5134317;27;20978;-66
2023/07/19 14:01:41;;;;;;;5.67;3.53;;;;;;;;;;5134822;27;20466;-65
2023/07/19 14:04:08;;;;;;;5.77;3.00;;;;;;;;;;5134882;27;20924;-65
2023/07/19 14:06:36;;;;;;;7.17;3.30;;;;;;;;;;5135154;27;20944;-64
2023/07/19 14:09:03;;;;;;;4.57;2.90;;;;;;;;;;5134851;27;20799;-65
2023/07/19 14:11:30;;;;;;;7.67;3.30;;;;;;;;;;5134863;27;20439;-66
2023/07/19 14:13:57;;;;;;;4.00;2.80;;;;;;;;;;5134933;27;20446;-65
2023/07/19 14:16:24;;;;;;;5.13;2.67;;;;;;;;;;5135370;27;20442;-65
2023/07/19 14:18:53;;;;;;;3.33;3.13;;;;;;;;;;5134463;27;20982;-65
2023/07/19 14:21:20;;;;;;;4.00;3.67;;;;;;;;;;5134386;27;20480;-65
2023/07/19 14:23:47;;;;;;;5.30;3.00;;;;;;;;;;5134347;27;20456;-65
2023/07/19 14:26:14;;;;;;;4.23;3.07;;;;;;;;;;5134430;27;20441;-65
2023/07/19 14:28:41;;;;;;;2.87;2.63;;;;;;;;;;5134769;27;20924;-65
2023/07/19 14:31:09;;;;;;;6.30;2.90;;;;;;;;;;5134682;27;20521;-64
2023/07/19 14:33:36;;;;;;;6.40;3.10;;;;;;;;;;5134457;27;20571;-64
2023/07/19 14:36:05;;;;;;;6.00;2.80;;;;;;;;;;5135019;27;20441;-64
2023/07/19 14:38:32;;;;;;;4.60;2.53;;;;;;;;;;5134614;27;20579;-64
2023/07/19 14:41:00;;;;;;;5.10;3.33;;;;;;;;;;5134814;27;20442;-64
2023/07/19 14:43:27;;;;;;;7.77;2.90;;;;;;;;;;5134582;27;20436;-65
2023/07/19 14:45:54;;;;;;;4.40;2.73;;;;;;;;;;5133901;27;20959;-65